BAW91C EGLL-EDDF
Flight info
| Callsign | BAW91C |
|---|---|
| Flight time | 1h 4m |
| Altitude | 35000 |
| Route | EGLL/27R N0488F350 DET2F DET L6 DVR UL9 KONAN UL607 SPI T180 NIVNU T847 IMCOM IMCO1D EDDF/07R |
| Aircraft | A35K/H-SDE2E3GHIJ3J4J5LM1ORWXY/LB1D1 |
Departure
| Time | 2026-04-15 12:22 |
|---|---|
| Airport | London Heathrow Airport (EGLL) |
Arrival
| Time | 2026-04-15 13:26 |
|---|---|
| Airport | Frankfurt Main Airport (EDDF) |
| Time | Latitude | Longitude | Altitude | Speed | Heading |
|---|---|---|---|---|---|
| 2026-04-15 11:52 | 51.46901 | -0.46423 | 91 ft | 0 kts | 56° |
| 2026-04-15 12:07 | 51.46899 | -0.46428 | 91 ft | 2 kts | 56° |
| 2026-04-15 12:07 | 51.46889 | -0.46453 | 93 ft | 3 kts | 56° |
| 2026-04-15 12:08 | 51.46878 | -0.46479 | 90 ft | 2 kts | 56° |
| 2026-04-15 12:08 | 51.46870 | -0.46499 | 91 ft | 3 kts | 72° |
| 2026-04-15 12:08 | 51.46869 | -0.46523 | 93 ft | 3 kts | 127° |
| 2026-04-15 12:08 | 51.46883 | -0.46544 | 91 ft | 3 kts | 148° |
| 2026-04-15 12:09 | 51.46894 | -0.46556 | 92 ft | 0 kts | 146° |
| 2026-04-15 12:09 | 51.46895 | -0.46556 | 92 ft | 0 kts | 146° |
| 2026-04-15 12:12 | 51.46892 | -0.46553 | 91 ft | 2 kts | 146° |
| 2026-04-15 12:12 | 51.46870 | -0.46529 | 90 ft | 6 kts | 146° |
| 2026-04-15 12:13 | 51.46824 | -0.46480 | 95 ft | 11 kts | 146° |
| 2026-04-15 12:13 | 51.46761 | -0.46390 | 96 ft | 13 kts | 117° |
| 2026-04-15 12:13 | 51.46750 | -0.46226 | 92 ft | 17 kts | 90° |
| 2026-04-15 12:13 | 51.46748 | -0.46022 | 95 ft | 20 kts | 91° |
| 2026-04-15 12:14 | 51.46749 | -0.45776 | 94 ft | 24 kts | 89° |
| 2026-04-15 12:14 | 51.46750 | -0.45494 | 93 ft | 27 kts | 89° |
| 2026-04-15 12:14 | 51.46753 | -0.45179 | 93 ft | 30 kts | 89° |
| 2026-04-15 12:14 | 51.46753 | -0.44836 | 93 ft | 32 kts | 90° |
| 2026-04-15 12:15 | 51.46753 | -0.44465 | 94 ft | 34 kts | 90° |
| 2026-04-15 12:15 | 51.46754 | -0.44182 | 94 ft | 19 kts | 89° |
| 2026-04-15 12:15 | 51.46769 | -0.43953 | 93 ft | 22 kts | 89° |
| 2026-04-15 12:15 | 51.46771 | -0.43709 | 94 ft | 4 kts | 89° |
| 2026-04-15 12:17 | 51.46777 | -0.43667 | 94 ft | 9 kts | 67° |
| 2026-04-15 12:17 | 51.46837 | -0.43605 | 93 ft | 13 kts | 11° |
| 2026-04-15 12:18 | 51.47001 | -0.43612 | 91 ft | 28 kts | 359° |
| 2026-04-15 12:18 | 51.47182 | -0.43593 | 92 ft | 25 kts | 5° |
| 2026-04-15 12:18 | 51.47288 | -0.43591 | 94 ft | 0 kts | 0° |
| 2026-04-15 12:18 | 51.47289 | -0.43591 | 94 ft | 1 kts | 360° |
| 2026-04-15 12:19 | 51.47314 | -0.43592 | 94 ft | 6 kts | 359° |
| 2026-04-15 12:19 | 51.47370 | -0.43593 | 94 ft | 11 kts | 359° |
| 2026-04-15 12:19 | 51.47471 | -0.43596 | 91 ft | 17 kts | 359° |
| 2026-04-15 12:19 | 51.47596 | -0.43560 | 96 ft | 17 kts | 36° |
| 2026-04-15 12:20 | 51.47604 | -0.43551 | 96 ft | 0 kts | 38° |
| 2026-04-15 12:20 | 51.47621 | -0.43524 | 96 ft | 8 kts | 45° |
| 2026-04-15 12:20 | 51.47665 | -0.43455 | 98 ft | 11 kts | 34° |
| 2026-04-15 12:20 | 51.47771 | -0.43499 | 97 ft | 9 kts | 284° |
| 2026-04-15 12:21 | 51.47767 | -0.43614 | 95 ft | 0 kts | 269° |
| 2026-04-15 12:21 | 51.47767 | -0.43628 | 94 ft | 16 kts | 269° |
| 2026-04-15 12:21 | 51.47764 | -0.44317 | 93 ft | 103 kts | 270° |
| 2026-04-15 12:22 | 51.47761 | -0.45856 | 92 ft | 172 kts | 270° |
| 2026-04-15 12:22 | 51.47752 | -0.47842 | 830 ft | 181 kts | 264° |
| 2026-04-15 12:22 | 51.47731 | -0.49816 | 1935 ft | 170 kts | 262° |
| 2026-04-15 12:22 | 51.47668 | -0.51643 | 2906 ft | 160 kts | 264° |
| 2026-04-15 12:23 | 51.47812 | -0.53482 | 3471 ft | 176 kts | 270° |
| 2026-04-15 12:23 | 51.48003 | -0.55551 | 3828 ft | 197 kts | 270° |
| 2026-04-15 12:23 | 51.48213 | -0.57775 | 4230 ft | 203 kts | 270° |
| 2026-04-15 12:23 | 51.48432 | -0.59937 | 4068 ft | 190 kts | 270° |
| 2026-04-15 12:24 | 51.48472 | -0.62069 | 3993 ft | 204 kts | 251° |
| 2026-04-15 12:24 | 51.47727 | -0.64125 | 3994 ft | 226 kts | 222° |
| 2026-04-15 12:24 | 51.46327 | -0.65286 | 3995 ft | 233 kts | 194° |
| 2026-04-15 12:24 | 51.44714 | -0.65439 | 3992 ft | 236 kts | 182° |
| 2026-04-15 12:25 | 51.43064 | -0.65328 | 4038 ft | 238 kts | 181° |
| 2026-04-15 12:25 | 51.41412 | -0.65187 | 4397 ft | 240 kts | 181° |
| 2026-04-15 12:25 | 51.39731 | -0.65025 | 5148 ft | 242 kts | 181° |
| 2026-04-15 12:25 | 51.38057 | -0.64605 | 6111 ft | 244 kts | 169° |
| 2026-04-15 12:26 | 51.36506 | -0.63428 | 6998 ft | 254 kts | 150° |
| 2026-04-15 12:26 | 51.35306 | -0.61225 | 7753 ft | 274 kts | 122° |
| 2026-04-15 12:26 | 51.34686 | -0.58297 | 8566 ft | 282 kts | 115° |
| 2026-04-15 12:26 | 51.33978 | -0.55360 | 9466 ft | 285 kts | 116° |
| 2026-04-15 12:27 | 51.33408 | -0.52273 | 10271 ft | 296 kts | 110° |
| 2026-04-15 12:27 | 51.33014 | -0.48936 | 10709 ft | 316 kts | 105° |
| 2026-04-15 12:27 | 51.32681 | -0.45420 | 11109 ft | 333 kts | 104° |
| 2026-04-15 12:27 | 51.32339 | -0.41641 | 11516 ft | 348 kts | 104° |
| 2026-04-15 12:28 | 51.32019 | -0.37734 | 11935 ft | 363 kts | 102° |
| 2026-04-15 12:28 | 51.31889 | -0.33623 | 12499 ft | 373 kts | 97° |
| 2026-04-15 12:28 | 51.31845 | -0.29463 | 13103 ft | 380 kts | 97° |
| 2026-04-15 12:28 | 51.31798 | -0.25186 | 13719 ft | 384 kts | 97° |
| 2026-04-15 12:29 | 51.31748 | -0.20940 | 14289 ft | 389 kts | 97° |
| 2026-04-15 12:29 | 51.31689 | -0.16530 | 14875 ft | 394 kts | 97° |
| 2026-04-15 12:29 | 51.31633 | -0.12123 | 15430 ft | 398 kts | 97° |
| 2026-04-15 12:29 | 51.31569 | -0.07733 | 16000 ft | 402 kts | 97° |
| 2026-04-15 12:30 | 51.31504 | -0.03226 | 16605 ft | 406 kts | 97° |
| 2026-04-15 12:30 | 51.31434 | 0.01289 | 17064 ft | 409 kts | 97° |
| 2026-04-15 12:30 | 51.31363 | 0.05843 | 17628 ft | 412 kts | 97° |
| 2026-04-15 12:30 | 51.31290 | 0.10450 | 18113 ft | 416 kts | 97° |
| 2026-04-15 12:31 | 51.31217 | 0.15031 | 18574 ft | 419 kts | 97° |
| 2026-04-15 12:31 | 51.31139 | 0.19758 | 19021 ft | 423 kts | 97° |
| 2026-04-15 12:31 | 51.31059 | 0.24486 | 19520 ft | 425 kts | 97° |
| 2026-04-15 12:31 | 51.30977 | 0.29165 | 19984 ft | 428 kts | 97° |
| 2026-04-15 12:32 | 51.30891 | 0.33984 | 20473 ft | 431 kts | 98° |
| 2026-04-15 12:32 | 51.30804 | 0.38789 | 20926 ft | 434 kts | 98° |
| 2026-04-15 12:32 | 51.30714 | 0.43626 | 21392 ft | 436 kts | 98° |
| 2026-04-15 12:32 | 51.30623 | 0.48488 | 21839 ft | 439 kts | 97° |
| 2026-04-15 12:33 | 51.30563 | 0.51725 | 22114 ft | 442 kts | 97° |
| 2026-04-15 12:33 | 51.30371 | 0.58255 | 22751 ft | 443 kts | 102° |
| 2026-04-15 12:33 | 51.29835 | 0.63067 | 23209 ft | 439 kts | 109° |
| 2026-04-15 12:33 | 51.29070 | 0.67800 | 23634 ft | 440 kts | 112° |
| 2026-04-15 12:34 | 51.28205 | 0.72508 | 24040 ft | 441 kts | 113° |
| 2026-04-15 12:34 | 51.27304 | 0.77199 | 24447 ft | 443 kts | 114° |
| 2026-04-15 12:34 | 51.26394 | 0.81909 | 24864 ft | 446 kts | 114° |
| 2026-04-15 12:34 | 51.25485 | 0.86670 | 25258 ft | 449 kts | 113° |
| 2026-04-15 12:35 | 51.24578 | 0.91473 | 25684 ft | 452 kts | 113° |
| 2026-04-15 12:35 | 51.23676 | 0.96300 | 26100 ft | 454 kts | 113° |
| 2026-04-15 12:35 | 51.22773 | 1.01146 | 26456 ft | 458 kts | 112° |
| 2026-04-15 12:35 | 51.21865 | 1.06032 | 26871 ft | 461 kts | 112° |
| 2026-04-15 12:36 | 51.20949 | 1.10953 | 27298 ft | 464 kts | 113° |
| 2026-04-15 12:36 | 51.20336 | 1.14236 | 27590 ft | 466 kts | 113° |
| 2026-04-15 12:36 | 51.19103 | 1.20821 | 28192 ft | 470 kts | 113° |
| 2026-04-15 12:36 | 51.18162 | 1.25827 | 28649 ft | 473 kts | 113° |
| 2026-04-15 12:37 | 51.17214 | 1.30857 | 29113 ft | 476 kts | 113° |
| 2026-04-15 12:37 | 51.16644 | 1.34269 | 29425 ft | 482 kts | 109° |
| 2026-04-15 12:37 | 51.16119 | 1.39610 | 29894 ft | 491 kts | 102° |
| 2026-04-15 12:37 | 51.15783 | 1.45048 | 30265 ft | 497 kts | 101° |
| 2026-04-15 12:38 | 51.15499 | 1.50576 | 30594 ft | 502 kts | 100° |
| 2026-04-15 12:38 | 51.15240 | 1.56147 | 31013 ft | 505 kts | 100° |
| 2026-04-15 12:38 | 51.14986 | 1.61746 | 31441 ft | 508 kts | 100° |
| 2026-04-15 12:38 | 51.14725 | 1.67383 | 31831 ft | 511 kts | 100° |
| 2026-04-15 12:39 | 51.14455 | 1.73033 | 32232 ft | 514 kts | 100° |
| 2026-04-15 12:39 | 51.14175 | 1.78717 | 32600 ft | 516 kts | 100° |
| 2026-04-15 12:39 | 51.13887 | 1.84419 | 33010 ft | 517 kts | 101° |
| 2026-04-15 12:39 | 51.13595 | 1.90141 | 33516 ft | 516 kts | 100° |
| 2026-04-15 12:40 | 51.13301 | 1.95836 | 33931 ft | 518 kts | 100° |
| 2026-04-15 12:40 | 51.13001 | 2.01571 | 34346 ft | 518 kts | 100° |
| 2026-04-15 12:40 | 51.12704 | 2.07289 | 34811 ft | 517 kts | 100° |
| 2026-04-15 12:40 | 51.12401 | 2.12976 | 35061 ft | 517 kts | 100° |
| 2026-04-15 12:41 | 51.12092 | 2.18703 | 35105 ft | 515 kts | 100° |
| 2026-04-15 12:41 | 51.11473 | 2.29985 | 35110 ft | 515 kts | 100° |
| 2026-04-15 12:42 | 51.10839 | 2.41348 | 35108 ft | 516 kts | 99° |
| 2026-04-15 12:42 | 51.10194 | 2.52736 | 35121 ft | 517 kts | 99° |
| 2026-04-15 12:43 | 51.09448 | 2.64096 | 35112 ft | 514 kts | 105° |
| 2026-04-15 12:43 | 51.07726 | 2.75037 | 35120 ft | 509 kts | 111° |
| 2026-04-15 12:44 | 51.05769 | 2.85860 | 35111 ft | 509 kts | 111° |
| 2026-04-15 12:44 | 51.03771 | 2.96672 | 35128 ft | 510 kts | 111° |
| 2026-04-15 12:45 | 51.01772 | 3.07497 | 35132 ft | 511 kts | 111° |
| 2026-04-15 12:45 | 50.99773 | 3.18317 | 35130 ft | 511 kts | 111° |
| 2026-04-15 12:46 | 50.97782 | 3.29042 | 35128 ft | 510 kts | 111° |
| 2026-04-15 12:46 | 50.95755 | 3.39892 | 35132 ft | 512 kts | 110° |
| 2026-04-15 12:47 | 50.93724 | 3.50707 | 35133 ft | 512 kts | 110° |
| 2026-04-15 12:47 | 50.91678 | 3.61537 | 35135 ft | 512 kts | 110° |
| 2026-04-15 12:48 | 50.89621 | 3.72326 | 35144 ft | 512 kts | 111° |
| 2026-04-15 12:48 | 50.87534 | 3.83104 | 35152 ft | 512 kts | 110° |
| 2026-04-15 12:49 | 50.85432 | 3.93899 | 35150 ft | 513 kts | 110° |
| 2026-04-15 12:49 | 50.83335 | 4.04623 | 35155 ft | 513 kts | 110° |
| 2026-04-15 12:50 | 50.81222 | 4.15383 | 35163 ft | 513 kts | 110° |
| 2026-04-15 12:50 | 50.79096 | 4.26146 | 35154 ft | 513 kts | 110° |
| 2026-04-15 12:51 | 50.76958 | 4.36910 | 35151 ft | 513 kts | 110° |
| 2026-04-15 12:51 | 50.74819 | 4.47618 | 35171 ft | 513 kts | 110° |
| 2026-04-15 12:52 | 50.72658 | 4.58383 | 35152 ft | 513 kts | 110° |
| 2026-04-15 12:52 | 50.70521 | 4.69121 | 35173 ft | 513 kts | 109° |
| 2026-04-15 12:53 | 50.68439 | 4.79944 | 35179 ft | 515 kts | 109° |
| 2026-04-15 12:53 | 50.66358 | 4.90705 | 35165 ft | 515 kts | 109° |
| 2026-04-15 12:54 | 50.64215 | 5.01470 | 35168 ft | 515 kts | 110° |
| 2026-04-15 12:54 | 50.61984 | 5.12193 | 35183 ft | 515 kts | 110° |
| 2026-04-15 12:55 | 50.59741 | 5.22926 | 35187 ft | 515 kts | 110° |
| 2026-04-15 12:55 | 50.57509 | 5.33631 | 35183 ft | 515 kts | 110° |
| 2026-04-15 12:56 | 50.55284 | 5.44274 | 35184 ft | 515 kts | 110° |
| 2026-04-15 12:56 | 50.53031 | 5.54997 | 35183 ft | 515 kts | 110° |
| 2026-04-15 12:57 | 50.50781 | 5.65695 | 35177 ft | 516 kts | 109° |
| 2026-04-15 12:57 | 50.48743 | 5.76495 | 35176 ft | 516 kts | 107° |
| 2026-04-15 12:58 | 50.46771 | 5.87360 | 35176 ft | 516 kts | 107° |
| 2026-04-15 12:58 | 50.44764 | 5.98162 | 35015 ft | 510 kts | 107° |
| 2026-04-15 12:58 | 50.43777 | 6.03392 | 34617 ft | 509 kts | 107° |
| 2026-04-15 12:59 | 50.41722 | 6.14179 | 33356 ft | 517 kts | 107° |
| 2026-04-15 12:59 | 50.40688 | 6.19575 | 32708 ft | 519 kts | 107° |
| 2026-04-15 12:59 | 50.39647 | 6.25001 | 32078 ft | 520 kts | 107° |
| 2026-04-15 13:00 | 50.38599 | 6.30449 | 31443 ft | 521 kts | 107° |
| 2026-04-15 13:00 | 50.37552 | 6.35886 | 30832 ft | 522 kts | 107° |
| 2026-04-15 13:00 | 50.36629 | 6.41393 | 30223 ft | 524 kts | 101° |
| 2026-04-15 13:00 | 50.36108 | 6.47049 | 29528 ft | 524 kts | 96° |
| 2026-04-15 13:01 | 50.35711 | 6.52710 | 28841 ft | 521 kts | 95° |
| 2026-04-15 13:01 | 50.35353 | 6.58335 | 28173 ft | 515 kts | 95° |
| 2026-04-15 13:01 | 50.35012 | 6.63823 | 27529 ft | 509 kts | 95° |
| 2026-04-15 13:01 | 50.34667 | 6.69345 | 26900 ft | 504 kts | 95° |
| 2026-04-15 13:02 | 50.34322 | 6.74838 | 26348 ft | 508 kts | 95° |
| 2026-04-15 13:02 | 50.33979 | 6.80327 | 25871 ft | 503 kts | 95° |
| 2026-04-15 13:02 | 50.33472 | 6.85718 | 25283 ft | 496 kts | 104° |
| 2026-04-15 13:02 | 50.32304 | 6.90745 | 24703 ft | 489 kts | 115° |
| 2026-04-15 13:03 | 50.30878 | 6.95528 | 24082 ft | 483 kts | 116° |
| 2026-04-15 13:03 | 50.29468 | 7.00189 | 23352 ft | 479 kts | 116° |
| 2026-04-15 13:03 | 50.28060 | 7.04881 | 22550 ft | 475 kts | 116° |
| 2026-04-15 13:03 | 50.26659 | 7.09552 | 21783 ft | 471 kts | 116° |
| 2026-04-15 13:04 | 50.25277 | 7.14154 | 21013 ft | 467 kts | 116° |
| 2026-04-15 13:04 | 50.23906 | 7.18719 | 20253 ft | 462 kts | 116° |
| 2026-04-15 13:04 | 50.22535 | 7.23279 | 19542 ft | 458 kts | 116° |
| 2026-04-15 13:04 | 50.21187 | 7.27755 | 18824 ft | 453 kts | 116° |
| 2026-04-15 13:05 | 50.19867 | 7.32134 | 18095 ft | 449 kts | 116° |
| 2026-04-15 13:05 | 50.18624 | 7.36506 | 17282 ft | 426 kts | 112° |
| 2026-04-15 13:05 | 50.17657 | 7.40715 | 16523 ft | 405 kts | 110° |
| 2026-04-15 13:05 | 50.16750 | 7.44733 | 15981 ft | 380 kts | 111° |
| 2026-04-15 13:06 | 50.15884 | 7.48486 | 15601 ft | 354 kts | 111° |
| 2026-04-15 13:06 | 50.15064 | 7.51991 | 15278 ft | 331 kts | 111° |
| 2026-04-15 13:06 | 50.14283 | 7.55291 | 14968 ft | 322 kts | 112° |
| 2026-04-15 13:06 | 50.13502 | 7.58560 | 14602 ft | 319 kts | 112° |
| 2026-04-15 13:07 | 50.12727 | 7.61790 | 14245 ft | 317 kts | 112° |
| 2026-04-15 13:07 | 50.11955 | 7.65000 | 13878 ft | 316 kts | 112° |
| 2026-04-15 13:07 | 50.11185 | 7.68197 | 13471 ft | 314 kts | 112° |
| 2026-04-15 13:07 | 50.10474 | 7.71373 | 13093 ft | 313 kts | 108° |
| 2026-04-15 13:08 | 50.09860 | 7.74659 | 12711 ft | 311 kts | 107° |
| 2026-04-15 13:08 | 50.09272 | 7.77824 | 12342 ft | 309 kts | 108° |
| 2026-04-15 13:08 | 50.08662 | 7.81054 | 11943 ft | 307 kts | 107° |
| 2026-04-15 13:08 | 50.08242 | 7.84295 | 11567 ft | 306 kts | 96° |
| 2026-04-15 13:09 | 50.08343 | 7.87600 | 11196 ft | 305 kts | 79° |
| 2026-04-15 13:09 | 50.08954 | 7.90740 | 10825 ft | 304 kts | 69° |
| 2026-04-15 13:09 | 50.09720 | 7.93798 | 10469 ft | 303 kts | 69° |
| 2026-04-15 13:09 | 50.10481 | 7.96847 | 10115 ft | 301 kts | 69° |
| 2026-04-15 13:10 | 50.11231 | 7.99884 | 9728 ft | 297 kts | 76° |
| 2026-04-15 13:10 | 50.11896 | 8.02925 | 9319 ft | 296 kts | 76° |
| 2026-04-15 13:10 | 50.12553 | 8.05964 | 8932 ft | 296 kts | 75° |
| 2026-04-15 13:10 | 50.13222 | 8.08980 | 8559 ft | 297 kts | 75° |
| 2026-04-15 13:11 | 50.13916 | 8.12033 | 8175 ft | 292 kts | 75° |
| 2026-04-15 13:11 | 50.14446 | 8.15046 | 7817 ft | 286 kts | 89° |
| 2026-04-15 13:11 | 50.14314 | 8.18082 | 7455 ft | 277 kts | 110° |
| 2026-04-15 13:11 | 50.13501 | 8.20699 | 7095 ft | 267 kts | 133° |
| 2026-04-15 13:12 | 50.12164 | 8.22497 | 6701 ft | 246 kts | 157° |
| 2026-04-15 13:12 | 50.10603 | 8.23257 | 6301 ft | 230 kts | 179° |
| 2026-04-15 13:12 | 50.09062 | 8.22934 | 5903 ft | 225 kts | 211° |
| 2026-04-15 13:12 | 50.08018 | 8.21164 | 5520 ft | 226 kts | 243° |
| 2026-04-15 13:13 | 50.07258 | 8.18999 | 5135 ft | 232 kts | 241° |
| 2026-04-15 13:13 | 50.06383 | 8.16846 | 4733 ft | 235 kts | 237° |
| 2026-04-15 13:13 | 50.05432 | 8.14768 | 4352 ft | 235 kts | 234° |
| 2026-04-15 13:13 | 50.04442 | 8.12748 | 4059 ft | 232 kts | 234° |
| 2026-04-15 13:14 | 50.03513 | 8.10697 | 4012 ft | 232 kts | 239° |
| 2026-04-15 13:14 | 50.02790 | 8.08481 | 3998 ft | 233 kts | 248° |
| 2026-04-15 13:14 | 50.01922 | 8.06437 | 3990 ft | 218 kts | 225° |
| 2026-04-15 13:14 | 50.00759 | 8.05121 | 3997 ft | 198 kts | 211° |
| 2026-04-15 13:15 | 49.99635 | 8.04013 | 3996 ft | 188 kts | 214° |
| 2026-04-15 13:15 | 49.98534 | 8.02905 | 4007 ft | 188 kts | 214° |
| 2026-04-15 13:15 | 49.97436 | 8.01793 | 4006 ft | 188 kts | 214° |
| 2026-04-15 13:15 | 49.96348 | 8.00674 | 4004 ft | 188 kts | 215° |
| 2026-04-15 13:16 | 49.95242 | 7.99566 | 4003 ft | 189 kts | 214° |
| 2026-04-15 13:16 | 49.94203 | 7.98323 | 4002 ft | 189 kts | 230° |
| 2026-04-15 13:16 | 49.93504 | 7.96604 | 4007 ft | 189 kts | 243° |
| 2026-04-15 13:16 | 49.92917 | 7.94751 | 4013 ft | 192 kts | 246° |
| 2026-04-15 13:17 | 49.92313 | 7.92908 | 3992 ft | 193 kts | 239° |
| 2026-04-15 13:17 | 49.91403 | 7.91387 | 3992 ft | 193 kts | 213° |
| 2026-04-15 13:17 | 49.90146 | 7.90849 | 3999 ft | 189 kts | 176° |
| 2026-04-15 13:17 | 49.88980 | 7.91613 | 4004 ft | 187 kts | 139° |
| 2026-04-15 13:18 | 49.88367 | 7.93359 | 3998 ft | 189 kts | 102° |
| 2026-04-15 13:18 | 49.88547 | 7.95354 | 4018 ft | 190 kts | 76° |
| 2026-04-15 13:18 | 49.89039 | 7.97258 | 4003 ft | 189 kts | 69° |
| 2026-04-15 13:18 | 49.89677 | 7.99063 | 4013 ft | 196 kts | 63° |
| 2026-04-15 13:19 | 49.90513 | 8.00945 | 4025 ft | 224 kts | 58° |
| 2026-04-15 13:19 | 49.91532 | 8.02855 | 4006 ft | 233 kts | 52° |
| 2026-04-15 13:19 | 49.92473 | 8.04872 | 4021 ft | 227 kts | 72° |
| 2026-04-15 13:19 | 49.92882 | 8.07145 | 3995 ft | 212 kts | 85° |
| 2026-04-15 13:20 | 49.93118 | 8.09311 | 3984 ft | 194 kts | 86° |
| 2026-04-15 13:20 | 49.93335 | 8.11322 | 3992 ft | 187 kts | 85° |
| 2026-04-15 13:20 | 49.93519 | 8.13307 | 4016 ft | 187 kts | 90° |
| 2026-04-15 13:20 | 49.93748 | 8.15328 | 4016 ft | 190 kts | 80° |
| 2026-04-15 13:21 | 49.94156 | 8.17237 | 3996 ft | 189 kts | 75° |
| 2026-04-15 13:21 | 49.94600 | 8.19158 | 3997 ft | 188 kts | 76° |
| 2026-04-15 13:21 | 49.95040 | 8.21057 | 3988 ft | 188 kts | 76° |
| 2026-04-15 13:21 | 49.95476 | 8.22978 | 3990 ft | 187 kts | 76° |
| 2026-04-15 13:22 | 49.95907 | 8.24883 | 4002 ft | 186 kts | 75° |
| 2026-04-15 13:22 | 49.96345 | 8.26777 | 3969 ft | 187 kts | 73° |
| 2026-04-15 13:22 | 49.96821 | 8.28649 | 3757 ft | 185 kts | 72° |
| 2026-04-15 13:22 | 49.97285 | 8.30504 | 3492 ft | 185 kts | 74° |
| 2026-04-15 13:23 | 49.97722 | 8.32381 | 3212 ft | 183 kts | 75° |
| 2026-04-15 13:23 | 49.98163 | 8.34243 | 2959 ft | 184 kts | 74° |
| 2026-04-15 13:23 | 49.98604 | 8.36082 | 2717 ft | 181 kts | 74° |
| 2026-04-15 13:23 | 49.99034 | 8.37886 | 2467 ft | 175 kts | 75° |
| 2026-04-15 13:24 | 49.99452 | 8.39635 | 2238 ft | 169 kts | 75° |
| 2026-04-15 13:24 | 49.99850 | 8.41303 | 2019 ft | 161 kts | 74° |
| 2026-04-15 13:24 | 50.00238 | 8.42930 | 1800 ft | 161 kts | 74° |
| 2026-04-15 13:24 | 50.00500 | 8.44018 | 1661 ft | 161 kts | 74° |
| 2026-04-15 13:25 | 50.00892 | 8.45651 | 1435 ft | 161 kts | 75° |
| 2026-04-15 13:25 | 50.01281 | 8.47285 | 1210 ft | 161 kts | 74° |
| 2026-04-15 13:25 | 50.01672 | 8.48919 | 994 ft | 161 kts | 74° |
| 2026-04-15 13:25 | 50.02050 | 8.50520 | 767 ft | 151 kts | 74° |
| 2026-04-15 13:26 | 50.02399 | 8.51979 | 578 ft | 141 kts | 72° |
| 2026-04-15 13:26 | 50.02740 | 8.53385 | 387 ft | 136 kts | 70° |
| 2026-04-15 13:26 | 50.03031 | 8.54686 | 351 ft | 112 kts | 68° |
| 2026-04-15 13:26 | 50.03234 | 8.55430 | 359 ft | 33 kts | 70° |
| 2026-04-15 13:27 | 50.03339 | 8.55722 | 360 ft | 30 kts | 49° |
| 2026-04-15 13:27 | 50.03495 | 8.55933 | 362 ft | 29 kts | 40° |
| 2026-04-15 13:27 | 50.03564 | 8.56023 | 364 ft | 0 kts | 39° |
| 2026-04-15 13:29 | 50.03570 | 8.56030 | 363 ft | 2 kts | 39° |
| 2026-04-15 13:29 | 50.03587 | 8.56051 | 365 ft | 4 kts | 39° |
| 2026-04-15 13:29 | 50.03615 | 8.56090 | 364 ft | 7 kts | 45° |
| 2026-04-15 13:29 | 50.03654 | 8.56169 | 364 ft | 16 kts | 59° |
| 2026-04-15 13:30 | 50.03701 | 8.56350 | 367 ft | 19 kts | 69° |
| 2026-04-15 13:30 | 50.03746 | 8.56535 | 366 ft | 8 kts | 69° |
| 2026-04-15 13:30 | 50.03780 | 8.56624 | 366 ft | 11 kts | 43° |
| 2026-04-15 13:30 | 50.03858 | 8.56668 | 367 ft | 13 kts | 13° |
| 2026-04-15 13:31 | 50.03909 | 8.56686 | 366 ft | 0 kts | 13° |
| 2026-04-15 13:31 | 50.03958 | 8.56703 | 367 ft | 13 kts | 13° |
| 2026-04-15 13:31 | 50.04055 | 8.56737 | 370 ft | 15 kts | 14° |
| 2026-04-15 13:32 | 50.04168 | 8.56770 | 368 ft | 18 kts | 10° |
| 2026-04-15 13:32 | 50.04266 | 8.56870 | 372 ft | 17 kts | 63° |
| 2026-04-15 13:32 | 50.04313 | 8.57061 | 374 ft | 20 kts | 69° |
| 2026-04-15 13:32 | 50.04365 | 8.57278 | 373 ft | 23 kts | 70° |
| 2026-04-15 13:33 | 50.04424 | 8.57524 | 369 ft | 26 kts | 69° |
| 2026-04-15 13:33 | 50.04488 | 8.57792 | 375 ft | 28 kts | 70° |
| 2026-04-15 13:33 | 50.04559 | 8.58089 | 372 ft | 31 kts | 69° |
| 2026-04-15 13:33 | 50.04634 | 8.58401 | 374 ft | 22 kts | 69° |
| 2026-04-15 13:34 | 50.04684 | 8.58609 | 374 ft | 22 kts | 69° |
| 2026-04-15 13:34 | 50.04746 | 8.58848 | 374 ft | 25 kts | 69° |
| 2026-04-15 13:34 | 50.04809 | 8.59116 | 374 ft | 27 kts | 69° |
| 2026-04-15 13:34 | 50.04872 | 8.59330 | 378 ft | 22 kts | 45° |
| 2026-04-15 13:35 | 50.05009 | 8.59331 | 373 ft | 15 kts | 340° |
| 2026-04-15 13:35 | 50.05103 | 8.59232 | 372 ft | 15 kts | 330° |
| 2026-04-15 13:35 | 50.05155 | 8.59197 | 372 ft | 3 kts | 338° |
| 2026-04-15 13:35 | 50.05165 | 8.59190 | 372 ft | 4 kts | 338° |
| 2026-04-15 13:36 | 50.05175 | 8.59184 | 370 ft | 0 kts | 338° |